Michigan Trader — V2DO6 — position and weather

sailwx.info

Track history (hours):
 
Tides and Currents Weather Stations Pressure Air Temp Water Temp Dewpoint Dewpoint Depression Visibility Wind Speed Wind Dir Waves Ship Positions

Michigan Trader

Last reported at 2018-Feb-18 13:32 UTC. Time now 2018-Feb-20 08:03 UTC.
Position N 36°02' E 030°25'.

Length 166 m; draft 7.2 m.

Type: Ship. MMSI: 305282000.

Date/timePositionNaut miles runAvg speedWind from/ knotsBaromVisibWave heightAir tempDewpointWater temp
2018-Feb-18 13:32N 36°02' E 030°25'015.8
2018-Feb-18 13:30N 36°02' E 030°25'815.8
2018-Feb-18 13:00N 36°02' E 030°35'915.6
2018-Feb-18 12:27N 36°01' E 030°46'  
2018-Feb-13 15:14N 37°29' E 024°01'412.9
2018-Feb-13 14:57N 37°31' E 023°57'613.1
2018-Feb-13 14:28N 37°35' E 023°51'613.4
2018-Feb-13 14:01N 37°38' E 023°44'712.9
2018-Feb-13 13:30N 37°44' E 023°40'612.9
2018-Feb-13 13:01N 37°50' E 023°37'613.0
2018-Feb-13 12:31N 37°56' E 023°36'1 2.0
2018-Feb-13 12:00N 37°57' E 023°36'0 0.0
2018-Feb-13 11:29N 37°57' E 023°36'0 0.0
2018-Feb-13 10:59N 37°57' E 023°36'0 0.0
2018-Feb-13 10:31N 37°57' E 023°36'0 0.0
2018-Feb-13 10:00N 37°57' E 023°36'0 0.0
2018-Feb-13 09:28N 37°57' E 023°36'0 0.0
2018-Feb-13 08:58N 37°57' E 023°36'0 0.0
2018-Feb-13 08:28N 37°57' E 023°36'0 0.0
2018-Feb-13 07:58N 37°57' E 023°36'0 0.0
2018-Feb-13 07:25N 37°57' E 023°36'0 0.0
2018-Feb-13 07:00N 37°57' E 023°36'0 0.0
2018-Feb-13 06:30N 37°57' E 023°36'0 0.0
2018-Feb-13 06:00N 37°57' E 023°36'0 0.0
2018-Feb-13 05:30N 37°57' E 023°36'0 0.0
2018-Feb-13 04:59N 37°57' E 023°36'0 0.0
2018-Feb-13 04:29N 37°57' E 023°36'0 0.0
2018-Feb-13 04:00N 37°57' E 023°36'0 0.0
2018-Feb-13 03:29N 37°57' E 023°36'0 0.0
2018-Feb-13 02:58N 37°57' E 023°36'0 0.0
2018-Feb-13 02:30N 37°57' E 023°36'0 0.0
2018-Feb-13 02:00N 37°57' E 023°36'0 0.0
2018-Feb-13 01:30N 37°57' E 023°36'0 0.0
2018-Feb-13 01:00N 37°57' E 023°36'0 0.0
2018-Feb-13 00:28N 37°57' E 023°36'0 0.0
2018-Feb-12 23:59N 37°57' E 023°36'0 0.0
2018-Feb-12 23:28N 37°57' E 023°36'0 0.0
2018-Feb-12 23:00N 37°57' E 023°36'0 0.9
2018-Feb-12 22:30N 37°57' E 023°36'2 3.9
2018-Feb-12 22:00N 37°55' E 023°35'0 0.3
2018-Feb-12 21:30N 37°55' E 023°35'0 0.8
2018-Feb-12 21:00N 37°55' E 023°35'4 7.8
2018-Feb-12 20:30N 37°52' E 023°38'612.0
2018-Feb-12 20:00N 37°46' E 023°42'612.0
2018-Feb-12 19:30N 37°41' E 023°45'1012.0
2018-Feb-12 18:39N 37°37' E 023°57'1611.7
2018-Feb-12 17:15N 37°44' E 024°16'29111.8
2018-Feb-11 16:32N 40°57' E 028°57'212.5
2018-Feb-11 16:24N 40°58' E 028°58'328 8.1
2018-Feb-09 23:50N 46°15' E 030°54'412.2
2018-Feb-09 23:30N 46°19' E 030°52'612.0
2018-Feb-09 23:00N 46°25' E 030°50'312.0
2018-Feb-09 22:46N 46°28' E 030°49'311.1
2018-Feb-09 22:30N 46°30' E 030°46'5 0.6
2018-Feb-09 13:00N 46°26' E 030°51'  
Track history (hours):
 
Tides and Currents Weather Stations Pressure Air Temp Water Temp Dewpoint Dewpoint Depression Visibility Wind Speed Wind Dir Waves Ship Positions

Michigan Trader

Last reported at 2018-Feb-18 13:32 UTC. Time now 2018-Feb-20 08:03 UTC.
Position N 36°02' E 030°25'.

Length 166 m; draft 7.2 m.

Type: Ship. MMSI: 305282000.

Date/timePositionNaut miles runAvg speedWind from/ knotsBaromVisibWave heightAir tempDewpointWater temp
2018-Feb-18 13:32N 36°02' E 030°25'015.8
2018-Feb-18 13:30N 36°02' E 030°25'815.8
2018-Feb-18 13:00N 36°02' E 030°35'915.6
2018-Feb-18 12:27N 36°01' E 030°46'  
2018-Feb-13 15:14N 37°29' E 024°01'412.9
2018-Feb-13 14:57N 37°31' E 023°57'613.1
2018-Feb-13 14:28N 37°35' E 023°51'613.4
2018-Feb-13 14:01N 37°38' E 023°44'712.9
2018-Feb-13 13:30N 37°44' E 023°40'612.9
2018-Feb-13 13:01N 37°50' E 023°37'613.0
2018-Feb-13 12:31N 37°56' E 023°36'1 2.0
2018-Feb-13 12:00N 37°57' E 023°36'0 0.0
2018-Feb-13 11:29N 37°57' E 023°36'0 0.0
2018-Feb-13 10:59N 37°57' E 023°36'0 0.0
2018-Feb-13 10:31N 37°57' E 023°36'0 0.0
2018-Feb-13 10:00N 37°57' E 023°36'0 0.0
2018-Feb-13 09:28N 37°57' E 023°36'0 0.0
2018-Feb-13 08:58N 37°57' E 023°36'0 0.0
2018-Feb-13 08:28N 37°57' E 023°36'0 0.0
2018-Feb-13 07:58N 37°57' E 023°36'0 0.0
2018-Feb-13 07:25N 37°57' E 023°36'0 0.0
2018-Feb-13 07:00N 37°57' E 023°36'0 0.0
2018-Feb-13 06:30N 37°57' E 023°36'0 0.0
2018-Feb-13 06:00N 37°57' E 023°36'0 0.0
2018-Feb-13 05:30N 37°57' E 023°36'0 0.0
2018-Feb-13 04:59N 37°57' E 023°36'0 0.0
2018-Feb-13 04:29N 37°57' E 023°36'0 0.0
2018-Feb-13 04:00N 37°57' E 023°36'0 0.0
2018-Feb-13 03:29N 37°57' E 023°36'0 0.0
2018-Feb-13 02:58N 37°57' E 023°36'0 0.0
2018-Feb-13 02:30N 37°57' E 023°36'0 0.0
2018-Feb-13 02:00N 37°57' E 023°36'0 0.0
2018-Feb-13 01:30N 37°57' E 023°36'0 0.0
2018-Feb-13 01:00N 37°57' E 023°36'0 0.0
2018-Feb-13 00:28N 37°57' E 023°36'0 0.0
2018-Feb-12 23:59N 37°57' E 023°36'0 0.0
2018-Feb-12 23:28N 37°57' E 023°36'0 0.0
2018-Feb-12 23:00N 37°57' E 023°36'0 0.9
2018-Feb-12 22:30N 37°57' E 023°36'2 3.9
2018-Feb-12 22:00N 37°55' E 023°35'0 0.3
2018-Feb-12 21:30N 37°55' E 023°35'0 0.8
2018-Feb-12 21:00N 37°55' E 023°35'4 7.8
2018-Feb-12 20:30N 37°52' E 023°38'612.0
2018-Feb-12 20:00N 37°46' E 023°42'612.0
2018-Feb-12 19:30N 37°41' E 023°45'1012.0
2018-Feb-12 18:39N 37°37' E 023°57'1611.7
2018-Feb-12 17:15N 37°44' E 024°16'29111.8
2018-Feb-11 16:32N 40°57' E 028°57'212.5
2018-Feb-11 16:24N 40°58' E 028°58'328 8.1
2018-Feb-09 23:50N 46°15' E 030°54'412.2
2018-Feb-09 23:30N 46°19' E 030°52'612.0
2018-Feb-09 23:00N 46°25' E 030°50'312.0
2018-Feb-09 22:46N 46°28' E 030°49'311.1
2018-Feb-09 22:30N 46°30' E 030°46'5 0.6
2018-Feb-09 13:00N 46°26' E 030°51'  

Dump ship's entire track history